This is the latest recevied weather packets stored in our database for station/object R2BLN-13. If no packets are shown the sender has not sent any weather packets the latest 10 day(s).
| Time | Temp. | Humidity | Pressure | Rain* | Wind** | Luminosity | Snow |
|---|---|---|---|---|---|---|---|
| 1787481631 | 25.56° C | 38% | 983.9 hPa | - | - | - | - |
| 1787481031 | 26.11° C | 39% | 983.8 hPa | - | - | - | - |
| 1787480431 | 27.22° C | 36% | 983.8 hPa | - | - | - | - |
| 1787479829 | 27.22° C | 36% | 983.8 hPa | - | - | - | - |
| 1787479207 | 27.78° C | 37% | 983.6 hPa | - | - | - | - |
| 1787478605 | 28.33° C | 32% | 983.6 hPa | - | - | - | - |
| 1787478348 | 28.89° C | 33% | 983.6 hPa | - | - | - | - |
| 1787477988 | 29.44° C | 32% | 983.6 hPa | - | - | - | - |
| 1787477971 | 29.44° C | 33% | 983.6 hPa | - | - | - | - |
| 1787477371 | 30.56° C | 32% | 983.6 hPa | - | - | - | - |
| 1787476771 | 32.22° C | 27% | 983.5 hPa | - | - | - | - |
| 1787476159 | 36.67° C | 24% | 983.3 hPa | - | - | - | - |
| 1787475559 | 36.67° C | 22% | 983.2 hPa | - | - | - | - |
| 1787474959 | 36.11° C | 24% | 983.3 hPa | - | - | - | - |
| 1787474359 | 37.78° C | 23% | 983.2 hPa | - | - | - | - |
| 1787473759 | 42.78° C | 16% | 983 hPa | - | - | - | - |
| 1787473159 | 46.11° C | 15% | 983.1 hPa | - | - | - | - |
| 1787472559 | 45° C | 16% | 983.1 hPa | - | - | - | - |
| 1787471959 | 47.22° C | 14% | 983 hPa | - | - | - | - |
| 1787471359 | 46.67° C | 15% | 983.1 hPa | - | - | - | - |
| 1787470759 | 47.78° C | 15% | 983.1 hPa | - | - | - | - |
| 1787470159 | 49.44° C | 15% | 983.1 hPa | - | - | - | - |
| 1787469559 | 47.22° C | 15% | 983.2 hPa | - | - | - | - |
| 1787468959 | 48.33° C | 15% | 983.3 hPa | - | - | - | - |
| 1787468359 | 50° C | 12% | 983.4 hPa | - | - | - | - |
* Rain since midnight (hover to see other rain measurements)
** Current wind speed in m/s (hover to see current wind gust speed)